createdAt,value
2018-12-15T00:00:44.951Z,42.50
2018-12-15T00:03:15.909Z,42.80
2018-12-15T00:05:47.149Z,42.70
2018-12-15T00:08:17.927Z,42.90
2018-12-15T00:10:48.701Z,44.40
2018-12-15T00:13:19.616Z,43.00
2018-12-15T00:15:50.387Z,42.90
2018-12-15T00:18:21.239Z,42.90
2018-12-15T00:20:52.082Z,42.80
2018-12-15T00:23:22.747Z,42.80
2018-12-15T00:25:53.494Z,42.90
2018-12-15T00:28:24.341Z,42.60
2018-12-15T00:30:55.145Z,42.90
2018-12-15T00:33:27.939Z,42.90
2018-12-15T00:35:58.671Z,42.60
2018-12-15T00:38:29.671Z,42.70
2018-12-15T00:41:00.448Z,42.70
2018-12-15T00:43:31.322Z,42.80
2018-12-15T00:46:02.054Z,42.40
2018-12-15T00:48:32.858Z,42.10
2018-12-15T00:51:03.651Z,42.10
2018-12-15T00:53:34.810Z,42.10
2018-12-15T00:56:06.697Z,42.00
2018-12-15T00:58:37.430Z,42.00
2018-12-15T01:01:08.176Z,42.00
2018-12-15T01:03:38.933Z,41.90
2018-12-15T01:06:09.850Z,41.70
2018-12-15T01:08:40.912Z,41.80
2018-12-15T01:11:11.798Z,41.80
2018-12-15T01:13:42.791Z,41.80
2018-12-15T01:16:13.608Z,41.70
2018-12-15T01:18:44.627Z,41.60
2018-12-15T01:21:15.514Z,41.40
2018-12-15T01:23:46.519Z,41.50
2018-12-15T01:26:17.407Z,41.60
2018-12-15T01:28:48.442Z,42.00
2018-12-15T01:31:19.785Z,41.80
2018-12-15T01:33:50.642Z,41.60
2018-12-15T01:36:21.596Z,41.60
2018-12-15T01:38:52.881Z,41.60
2018-12-15T01:41:23.614Z,41.50
2018-12-15T01:43:54.251Z,41.60
2018-12-15T01:46:25.377Z,41.70
2018-12-15T01:48:56.320Z,41.60
2018-12-15T01:51:27.002Z,41.70
2018-12-15T01:53:58.050Z,41.70
2018-12-15T01:56:28.844Z,41.60
2018-12-15T01:58:59.683Z,41.60
2018-12-15T02:01:30.637Z,41.60
2018-12-15T02:04:01.545Z,41.50
2018-12-15T02:06:32.274Z,41.50
2018-12-15T02:09:04.623Z,41.60
2018-12-15T02:11:35.432Z,41.30
2018-12-15T02:14:06.927Z,41.50
2018-12-15T02:16:37.720Z,41.40
2018-12-15T02:19:08.417Z,41.40
2018-12-15T02:21:39.395Z,41.50
2018-12-15T02:24:10.491Z,41.40
2018-12-15T02:26:41.387Z,40.90
2018-12-15T02:29:14.660Z,41.60
2018-12-15T02:31:46.231Z,41.60
2018-12-15T02:34:16.896Z,41.50
2018-12-15T02:36:48.204Z,41.20
2018-12-15T02:39:18.842Z,41.30
2018-12-15T02:41:49.560Z,41.20
2018-12-15T02:44:20.386Z,41.10
2018-12-15T02:46:51.199Z,41.10
2018-12-15T02:49:21.854Z,40.90
2018-12-15T02:51:52.643Z,41.00
2018-12-15T02:54:23.360Z,41.00
2018-12-15T02:56:54.375Z,41.10
2018-12-15T02:59:25.185Z,41.20
2018-12-15T03:01:55.956Z,41.30
2018-12-15T03:04:26.669Z,41.20
2018-12-15T03:06:57.416Z,41.30
2018-12-15T03:09:28.215Z,41.30
2018-12-15T03:11:58.898Z,41.20
2018-12-15T03:14:29.991Z,41.80
2018-12-15T03:17:07.280Z,41.30
2018-12-15T03:19:37.960Z,41.40
2018-12-15T03:22:08.938Z,41.00
2018-12-15T03:24:39.592Z,40.90
2018-12-15T03:27:10.361Z,40.90
2018-12-15T03:29:41.108Z,41.30
2018-12-15T03:32:12.128Z,41.40
2018-12-15T03:34:43.104Z,41.50
2018-12-15T03:37:13.803Z,41.40
2018-12-15T03:39:44.496Z,41.30
2018-12-15T03:42:15.143Z,41.30
2018-12-15T03:44:46.073Z,41.90
2018-12-15T03:47:17.064Z,41.10
2018-12-15T03:49:47.940Z,41.20
2018-12-15T03:52:18.727Z,41.30
2018-12-15T03:54:49.403Z,41.40
2018-12-15T03:57:20.219Z,41.40
2018-12-15T03:59:51.381Z,41.40
2018-12-15T04:02:22.788Z,41.50
2018-12-15T04:04:54.191Z,41.30
2018-12-15T04:07:24.919Z,41.20
2018-12-15T04:09:55.587Z,41.20
2018-12-15T04:12:26.664Z,41.10
2018-12-15T04:14:58.674Z,41.10
2018-12-15T04:17:29.508Z,41.00
2018-12-15T04:20:00.472Z,41.00
2018-12-15T04:22:31.339Z,41.20
2018-12-15T04:25:01.969Z,41.10
2018-12-15T04:27:33.290Z,41.20
2018-12-15T04:30:05.199Z,41.20
2018-12-15T04:32:36.053Z,41.00
2018-12-15T04:35:07.519Z,41.40
2018-12-15T04:37:38.260Z,41.00
2018-12-15T04:40:09.892Z,41.10
2018-12-15T04:42:40.748Z,41.00
2018-12-15T04:45:11.810Z,41.10
2018-12-15T04:47:42.613Z,40.90
2018-12-15T04:50:13.325Z,40.70
2018-12-15T04:52:44.194Z,40.70
2018-12-15T04:55:15.267Z,40.70
2018-12-15T04:57:46.346Z,40.80
2018-12-15T05:00:17.024Z,40.60
2018-12-15T05:02:48.060Z,40.50
2018-12-15T05:05:18.845Z,40.70
2018-12-15T05:07:49.539Z,40.60
2018-12-15T05:10:20.475Z,40.50
2018-12-15T05:12:51.159Z,40.60
2018-12-15T05:15:22.027Z,40.60
2018-12-15T05:17:52.824Z,40.50
2018-12-15T05:20:23.715Z,40.60
2018-12-15T05:22:54.455Z,40.50
2018-12-15T05:25:25.343Z,40.60
2018-12-15T05:27:55.989Z,40.60
2018-12-15T05:30:26.707Z,40.60
2018-12-15T05:32:57.374Z,40.60
2018-12-15T05:35:28.303Z,40.60
2018-12-15T05:37:59.295Z,40.50
2018-12-15T05:40:30.100Z,40.40
2018-12-15T05:43:00.940Z,40.50
2018-12-15T05:45:31.651Z,40.60
2018-12-15T05:48:02.397Z,40.50
2018-12-15T05:50:33.165Z,40.40
2018-12-15T05:53:03.934Z,41.00
2018-12-15T05:55:34.571Z,40.60
2018-12-15T05:58:05.664Z,40.50
2018-12-15T06:00:36.331Z,40.60
2018-12-15T06:03:07.015Z,40.50
2018-12-15T06:05:38.278Z,40.40
2018-12-15T06:08:08.898Z,40.40
2018-12-15T06:10:40.190Z,40.50
2018-12-15T06:13:11.003Z,40.50
2018-12-15T06:15:43.469Z,40.40
2018-12-15T06:18:14.323Z,40.40
2018-12-15T06:20:45.267Z,40.60
2018-12-15T06:23:16.087Z,40.50
2018-12-15T06:25:47.158Z,40.50
2018-12-15T06:28:18.116Z,40.50
2018-12-15T06:30:48.801Z,40.50
2018-12-15T06:33:19.455Z,40.40
2018-12-15T06:35:50.143Z,40.60
2018-12-15T06:38:20.923Z,40.50
2018-12-15T06:40:51.636Z,40.40
2018-12-15T06:43:23.203Z,40.50
2018-12-15T06:45:54.389Z,40.60
2018-12-15T06:48:25.088Z,40.30
2018-12-15T06:50:56.107Z,40.40
2018-12-15T06:53:27.001Z,40.50
2018-12-15T06:55:57.751Z,40.20
2018-12-15T06:58:28.472Z,40.20
2018-12-15T07:00:59.160Z,40.20
2018-12-15T07:03:29.871Z,40.20
2018-12-15T07:06:01.661Z,40.30
2018-12-15T07:08:32.305Z,40.30
2018-12-15T07:11:04.230Z,40.40
2018-12-15T07:13:34.884Z,40.30
2018-12-15T07:16:06.223Z,40.40
2018-12-15T07:18:37.034Z,40.50
2018-12-15T07:21:07.985Z,40.50
2018-12-15T07:23:38.735Z,40.30
2018-12-15T07:26:09.406Z,40.30
2018-12-15T07:28:40.224Z,40.70
2018-12-15T07:31:11.420Z,40.60
2018-12-15T07:33:42.188Z,40.60
2018-12-15T07:36:13.015Z,40.60
2018-12-15T07:38:43.747Z,40.40
2018-12-15T07:41:14.564Z,40.50
2018-12-15T07:43:45.396Z,40.60
2018-12-15T07:46:16.206Z,40.60
2018-12-15T07:48:51.290Z,40.60
2018-12-15T07:51:20.587Z,40.60
2018-12-15T07:53:51.379Z,40.50
2018-12-15T07:56:26.917Z,40.60
2018-12-15T07:58:57.744Z,40.60
2018-12-15T08:01:28.889Z,40.70
2018-12-15T08:03:59.643Z,40.70
2018-12-15T08:06:30.395Z,40.80
2018-12-15T08:09:01.101Z,40.70
2018-12-15T08:11:38.138Z,40.70
2018-12-15T08:14:11.512Z,40.70
2018-12-15T08:16:42.379Z,40.70
2018-12-15T08:19:13.087Z,40.40
2018-12-15T08:21:43.801Z,40.40
2018-12-15T08:24:14.801Z,40.50
2018-12-15T08:26:45.593Z,40.60
2018-12-15T08:29:16.346Z,40.70
2018-12-15T08:31:47.127Z,40.80
2018-12-15T08:34:17.900Z,40.80
2018-12-15T08:36:48.837Z,40.80
2018-12-15T08:39:19.679Z,40.70
2018-12-15T08:41:50.390Z,40.80
2018-12-15T08:44:21.446Z,40.80
2018-12-15T08:46:52.667Z,40.70
2018-12-15T08:49:23.554Z,40.50
2018-12-15T08:51:54.411Z,40.60
2018-12-15T08:54:25.253Z,40.50
2018-12-15T08:56:56.248Z,40.60
2018-12-15T08:59:27.144Z,40.60
2018-12-15T09:01:58.823Z,40.80
2018-12-15T09:04:29.773Z,40.80
2018-12-15T09:07:00.462Z,40.80
2018-12-15T09:09:31.324Z,40.80
2018-12-15T09:12:01.986Z,40.80
2018-12-15T09:14:32.799Z,41.00
2018-12-15T09:17:03.642Z,41.00
2018-12-15T09:19:34.484Z,41.10
2018-12-15T09:22:11.615Z,41.10
2018-12-15T09:24:38.234Z,41.00
2018-12-15T09:27:09.033Z,41.70
2018-12-15T09:29:40.139Z,41.00
2018-12-15T09:32:10.896Z,41.10
2018-12-15T09:34:46.887Z,40.90
2018-12-15T09:37:17.732Z,40.20
2018-12-15T09:39:48.572Z,40.70
2018-12-15T09:42:19.422Z,40.80
2018-12-15T09:44:50.912Z,41.00
2018-12-15T09:47:21.764Z,40.80
2018-12-15T09:49:52.589Z,40.90
2018-12-15T09:52:23.487Z,41.10
2018-12-15T09:54:54.450Z,41.20
2018-12-15T09:57:26.018Z,41.20
2018-12-15T09:59:56.969Z,41.40
2018-12-15T10:02:28.418Z,41.00
2018-12-15T10:05:00.006Z,40.60
2018-12-15T10:07:30.911Z,41.10
2018-12-15T10:10:02.102Z,41.20
2018-12-15T10:12:32.938Z,41.00
2018-12-15T10:15:05.651Z,41.10
2018-12-15T10:17:36.945Z,41.10
2018-12-15T10:20:09.168Z,41.00
2018-12-15T10:22:39.898Z,41.80
2018-12-15T10:25:10.854Z,40.80
2018-12-15T10:27:41.711Z,41.00
2018-12-15T10:30:18.595Z,41.00
2018-12-15T10:32:53.694Z,40.40
2018-12-15T10:35:25.491Z,40.90
2018-12-15T10:37:56.281Z,40.70
2018-12-15T10:40:27.162Z,40.80
2018-12-15T10:42:58.239Z,40.70
2018-12-15T10:45:29.182Z,40.30
2018-12-15T10:48:00.030Z,40.70
2018-12-15T10:50:30.742Z,40.60
2018-12-15T10:53:01.503Z,40.80
2018-12-15T10:55:32.227Z,40.90
2018-12-15T10:58:03.010Z,40.80
2018-12-15T11:00:38.916Z,40.90
2018-12-15T11:03:11.192Z,41.10
2018-12-15T11:05:42.980Z,41.10
2018-12-15T11:08:14.087Z,41.10
2018-12-15T11:10:45.086Z,41.20
2018-12-15T11:13:15.931Z,41.30
2018-12-15T11:15:46.781Z,41.20
2018-12-15T11:18:17.660Z,41.20
2018-12-15T11:20:49.441Z,41.80
2018-12-15T11:23:20.901Z,41.00
2018-12-15T11:25:51.628Z,41.10
2018-12-15T11:28:22.416Z,41.00
2018-12-15T11:30:53.276Z,40.90
2018-12-15T11:33:24.211Z,40.90
2018-12-15T11:35:55.492Z,40.80
2018-12-15T11:38:26.533Z,41.00
2018-12-15T11:40:57.398Z,40.80
2018-12-15T11:43:28.171Z,41.00
2018-12-15T11:45:58.969Z,41.10
2018-12-15T11:48:29.928Z,41.10
2018-12-15T11:51:00.781Z,41.00
2018-12-15T11:53:31.716Z,40.20
2018-12-15T11:56:03.066Z,40.90
2018-12-15T11:58:33.985Z,41.10
2018-12-15T12:01:06.250Z,41.10
2018-12-15T12:03:37.054Z,41.10
2018-12-15T12:06:07.824Z,41.10
2018-12-15T12:08:38.689Z,41.00
2018-12-15T12:11:09.631Z,41.00
2018-12-15T12:13:40.475Z,41.20
2018-12-15T12:16:11.667Z,41.30
2018-12-15T12:18:42.878Z,41.50
2018-12-15T12:21:13.877Z,41.50
2018-12-15T12:23:44.604Z,41.20
2018-12-15T12:26:15.940Z,41.20
2018-12-15T12:28:47.361Z,41.30
2018-12-15T12:31:18.213Z,41.20
2018-12-15T12:33:49.141Z,41.20
2018-12-15T12:36:20.124Z,41.10
2018-12-15T12:38:52.219Z,41.20
2018-12-15T12:41:23.267Z,41.20
2018-12-15T12:43:54.062Z,41.00
2018-12-15T12:46:24.927Z,41.10
2018-12-15T12:48:55.789Z,41.00
2018-12-15T12:51:27.051Z,41.10
2018-12-15T12:53:57.723Z,41.10
2018-12-15T12:56:28.535Z,41.10
2018-12-15T12:59:00.231Z,40.80
2018-12-15T13:01:30.910Z,41.00
2018-12-15T13:04:02.141Z,41.00
2018-12-15T13:06:33.034Z,41.00
2018-12-15T13:09:06.408Z,41.10
2018-12-15T13:11:37.331Z,41.00
2018-12-15T13:14:08.475Z,40.80
2018-12-15T13:16:39.826Z,40.90
2018-12-15T13:19:10.930Z,40.80
2018-12-15T13:21:42.499Z,40.90
2018-12-15T13:24:13.401Z,41.10
2018-12-15T13:26:44.408Z,41.10
2018-12-15T13:29:15.130Z,41.00
2018-12-15T13:31:46.087Z,40.90
2018-12-15T13:34:17.002Z,40.70
2018-12-15T13:36:47.941Z,40.60
2018-12-15T13:39:18.750Z,40.80
2018-12-15T13:41:49.567Z,41.40
2018-12-15T13:44:20.924Z,40.90
2018-12-15T13:46:51.771Z,40.90
2018-12-15T13:49:22.608Z,41.00
2018-12-15T13:51:54.093Z,41.00
2018-12-15T13:54:25.453Z,41.00
2018-12-15T13:56:56.274Z,40.80
2018-12-15T13:59:27.680Z,40.70
2018-12-15T14:01:59.265Z,40.90
2018-12-15T14:04:30.055Z,40.80
2018-12-15T14:07:01.144Z,40.80
2018-12-15T14:09:33.588Z,40.90
2018-12-15T14:12:04.785Z,40.70
2018-12-15T14:14:35.610Z,40.80
2018-12-15T14:17:06.921Z,40.70
2018-12-15T14:19:37.965Z,40.70
2018-12-15T14:22:08.866Z,40.60
2018-12-15T14:24:40.079Z,40.70
2018-12-15T14:27:11.036Z,40.80
2018-12-15T14:29:41.924Z,40.70
2018-12-15T14:32:12.682Z,40.70
2018-12-15T14:34:43.507Z,40.60
2018-12-15T14:37:14.446Z,40.50
2018-12-15T14:39:45.663Z,40.40
2018-12-15T14:42:16.646Z,40.70
2018-12-15T14:44:47.448Z,40.60
2018-12-15T14:47:18.218Z,40.60
2018-12-15T14:49:48.988Z,40.40
2018-12-15T14:52:20.258Z,40.40
2018-12-15T14:54:50.966Z,40.30
2018-12-15T14:57:25.822Z,40.30
2018-12-15T14:59:56.697Z,40.40
2018-12-15T15:02:27.986Z,40.40
2018-12-15T15:04:58.756Z,40.50
2018-12-15T15:07:29.529Z,40.40
2018-12-15T15:10:00.374Z,40.40
2018-12-15T15:12:31.317Z,40.50
2018-12-15T15:15:02.553Z,40.50
2018-12-15T15:17:33.462Z,40.40
2018-12-15T15:20:06.212Z,40.40
2018-12-15T15:22:37.315Z,40.30
2018-12-15T15:25:08.406Z,40.40
2018-12-15T15:27:39.254Z,40.30
2018-12-15T15:30:12.115Z,40.40
2018-12-15T15:32:42.979Z,40.40
2018-12-15T15:35:13.770Z,40.40
2018-12-15T15:37:44.532Z,40.30
2018-12-15T15:40:15.498Z,40.30
2018-12-15T15:42:46.271Z,40.30
2018-12-15T15:45:17.031Z,40.00
2018-12-15T15:47:47.961Z,40.30
2018-12-15T15:50:18.809Z,40.40
2018-12-15T15:52:49.696Z,40.40
2018-12-15T15:55:20.578Z,40.50
2018-12-15T15:57:51.465Z,40.50
2018-12-15T16:00:22.473Z,40.50
2018-12-15T16:02:53.733Z,40.50
2018-12-15T16:05:26.407Z,40.70
2018-12-15T16:07:57.209Z,40.60
2018-12-15T16:10:28.044Z,41.20
2018-12-15T16:12:58.929Z,40.60
2018-12-15T16:15:30.041Z,40.80
2018-12-15T16:18:00.877Z,40.50
2018-12-15T16:20:32.941Z,40.50
2018-12-15T16:23:03.927Z,40.50
2018-12-15T16:25:35.242Z,40.40
2018-12-15T16:28:06.382Z,40.30
2018-12-15T16:30:37.245Z,40.50
2018-12-15T16:33:08.389Z,40.50
2018-12-15T16:35:39.334Z,40.60
2018-12-15T16:38:16.676Z,41.30
2018-12-15T16:40:47.788Z,40.60
2018-12-15T16:43:18.683Z,40.70
2018-12-15T16:45:49.814Z,40.80
2018-12-15T16:48:20.640Z,40.90
2018-12-15T16:50:51.539Z,40.90
2018-12-15T16:53:23.327Z,40.90
2018-12-15T16:55:54.209Z,40.80
2018-12-15T16:58:25.525Z,41.00
2018-12-15T17:00:56.803Z,41.00
2018-12-15T17:03:30.463Z,41.00
2018-12-15T17:06:00.948Z,41.10
2018-12-15T17:08:31.742Z,41.00
2018-12-15T17:11:02.470Z,41.00
2018-12-15T17:13:33.306Z,40.80
2018-12-15T17:16:04.573Z,41.60
2018-12-15T17:18:35.591Z,40.80
2018-12-15T17:21:07.012Z,40.90
2018-12-15T17:23:37.942Z,40.80
2018-12-15T17:26:09.511Z,40.90
2018-12-15T17:28:40.401Z,41.00
2018-12-15T17:31:11.364Z,41.00
2018-12-15T17:33:42.556Z,40.90
2018-12-15T17:36:13.458Z,41.00
2018-12-15T17:38:44.581Z,41.00
2018-12-15T17:41:15.630Z,41.00
2018-12-15T17:43:47.057Z,41.10
2018-12-15T17:46:17.776Z,41.00
2018-12-15T17:48:49.153Z,41.00
2018-12-15T17:51:20.346Z,40.90
2018-12-15T17:53:51.128Z,41.00
2018-12-15T17:56:21.943Z,41.00
2018-12-15T17:58:52.722Z,40.70
2018-12-15T18:01:23.560Z,40.90
2018-12-15T18:03:54.298Z,41.30
2018-12-15T18:06:25.463Z,41.10
2018-12-15T18:08:56.244Z,41.00
2018-12-15T18:11:27.150Z,41.00
2018-12-15T18:13:57.876Z,41.10
2018-12-15T18:16:28.746Z,41.10
2018-12-15T18:18:59.862Z,41.10
2018-12-15T18:21:30.713Z,41.20
2018-12-15T18:24:01.483Z,41.20
2018-12-15T18:26:32.214Z,41.10
2018-12-15T18:29:03.060Z,41.30
2018-12-15T18:31:34.047Z,41.30
2018-12-15T18:34:04.946Z,41.30
2018-12-15T18:36:35.673Z,41.30
2018-12-15T18:39:08.948Z,41.40
2018-12-15T18:41:39.740Z,41.40
2018-12-15T18:44:10.762Z,41.50
2018-12-15T18:46:41.796Z,41.40
2018-12-15T18:49:12.712Z,41.40
2018-12-15T18:51:43.985Z,41.40
2018-12-15T18:54:14.814Z,41.60
2018-12-15T18:56:45.776Z,41.60
2018-12-15T18:59:17.480Z,41.60
2018-12-15T19:01:48.264Z,41.60
2018-12-15T19:04:20.492Z,41.60
2018-12-15T19:06:51.404Z,41.50
2018-12-15T19:09:22.193Z,41.60
2018-12-15T19:11:52.989Z,41.60
2018-12-15T19:14:24.370Z,41.60
2018-12-15T19:16:55.693Z,41.60
2018-12-15T19:19:26.619Z,41.60
2018-12-15T19:21:57.341Z,41.60
2018-12-15T19:24:28.270Z,41.80
2018-12-15T19:26:59.065Z,41.70
2018-12-15T19:29:30.184Z,41.80
2018-12-15T19:32:01.038Z,41.60
2018-12-15T19:34:31.968Z,41.70
2018-12-15T19:37:02.869Z,41.70
2018-12-15T19:39:33.771Z,41.70
2018-12-15T19:42:04.908Z,41.80
2018-12-15T19:44:35.748Z,41.90
2018-12-15T19:47:06.525Z,41.80
2018-12-15T19:49:37.516Z,41.70
2018-12-15T19:52:08.371Z,41.80
2018-12-15T19:54:39.172Z,41.80
2018-12-15T19:57:10.387Z,41.80
2018-12-15T19:59:41.161Z,41.80
2018-12-15T20:02:12.050Z,41.50
2018-12-15T20:04:42.880Z,41.70
2018-12-15T20:07:14.396Z,41.80
2018-12-15T20:09:45.083Z,41.70
2018-12-15T20:12:16.165Z,41.80
2018-12-15T20:14:47.084Z,41.70
2018-12-15T20:17:18.067Z,41.90
2018-12-15T20:19:48.883Z,41.70
2018-12-15T20:22:19.613Z,41.80
2018-12-15T20:24:50.936Z,41.80
2018-12-15T20:27:21.829Z,41.90
2018-12-15T20:29:52.700Z,41.80
2018-12-15T20:32:23.495Z,41.50
2018-12-15T20:34:54.374Z,41.80
2018-12-15T20:37:25.204Z,41.90
2018-12-15T20:39:56.335Z,41.30
2018-12-15T20:42:27.306Z,41.70
2018-12-15T20:44:58.100Z,41.90
2018-12-15T20:47:28.984Z,41.90
2018-12-15T20:49:59.859Z,41.90
2018-12-15T20:52:30.606Z,41.90
2018-12-15T20:55:01.404Z,41.90
2018-12-15T20:57:32.281Z,41.90
2018-12-15T21:00:03.805Z,41.90
2018-12-15T21:02:34.950Z,41.80
2018-12-15T21:05:07.855Z,41.90
2018-12-15T21:07:38.675Z,41.90
2018-12-15T21:10:10.477Z,41.70
2018-12-15T21:12:41.201Z,41.90
2018-12-15T21:15:23.647Z,42.50
2018-12-15T21:17:54.567Z,41.90
2018-12-15T21:20:25.633Z,42.00
2018-12-15T21:22:56.895Z,41.90
2018-12-15T21:25:28.005Z,42.00
2018-12-15T21:27:59.313Z,41.90
2018-12-15T21:30:30.313Z,41.90
2018-12-15T21:33:01.336Z,43.20
2018-12-15T21:35:32.612Z,41.90
2018-12-15T21:38:03.490Z,41.90
2018-12-15T21:40:34.384Z,42.00
2018-12-15T21:43:05.441Z,41.90
2018-12-15T21:45:36.330Z,41.90
2018-12-15T21:48:07.214Z,41.90
2018-12-15T21:50:38.115Z,42.00
2018-12-15T21:53:08.994Z,41.90
2018-12-15T21:55:40.043Z,42.00
2018-12-15T21:58:10.985Z,41.90
2018-12-15T22:00:42.623Z,42.00
2018-12-15T22:03:13.734Z,42.00
2018-12-15T22:05:44.738Z,42.00
2018-12-15T22:08:15.601Z,41.90
2018-12-15T22:10:48.081Z,42.00
2018-12-15T22:13:18.863Z,41.90
2018-12-15T22:15:50.382Z,41.90
2018-12-15T22:18:21.191Z,41.80
2018-12-15T22:20:53.023Z,42.00
2018-12-15T22:23:23.864Z,41.90
2018-12-15T22:25:54.823Z,41.90
2018-12-15T22:28:25.813Z,41.90
2018-12-15T22:30:56.665Z,41.90
2018-12-15T22:33:27.684Z,41.90
2018-12-15T22:35:58.972Z,41.80
2018-12-15T22:38:29.824Z,42.10
2018-12-15T22:41:00.786Z,41.80
2018-12-15T22:43:31.484Z,41.80
2018-12-15T22:46:02.627Z,41.70
2018-12-15T22:48:33.815Z,41.80
2018-12-15T22:51:04.923Z,41.80
2018-12-15T22:53:35.759Z,41.80
2018-12-15T22:56:07.089Z,41.70
2018-12-15T22:58:37.917Z,41.70
2018-12-15T23:01:11.959Z,42.20
2018-12-15T23:03:42.810Z,41.70
2018-12-15T23:06:13.659Z,41.60
2018-12-15T23:08:45.027Z,41.60
2018-12-15T23:11:15.974Z,42.30
2018-12-15T23:13:46.865Z,41.60
2018-12-15T23:16:17.829Z,41.70
2018-12-15T23:18:48.829Z,41.50
2018-12-15T23:21:20.111Z,41.60
2018-12-15T23:23:51.226Z,41.60
2018-12-15T23:26:22.624Z,41.60
2018-12-15T23:28:53.536Z,41.50
2018-12-15T23:31:24.267Z,41.50
2018-12-15T23:33:55.218Z,41.50
2018-12-15T23:36:26.052Z,41.50
2018-12-15T23:38:56.852Z,41.50
2018-12-15T23:41:27.572Z,41.30
2018-12-15T23:43:58.687Z,41.20
2018-12-15T23:46:29.448Z,41.50
2018-12-15T23:49:01.204Z,41.30
2018-12-15T23:51:32.095Z,41.30
2018-12-15T23:54:03.325Z,41.50
2018-12-15T23:56:34.293Z,41.40
2018-12-15T23:59:05.251Z,41.40
